Cave Spring, Georgia
Current Conditions -  °F | °C
As of 7:53 PM on Saturday 22 Nov 2014 (Local Time) from KRMG Reporting Station
Overcast Overcast  
Wind Chill: 56°   Ceiling: 3400
Heat Index: 56°   Visibility: 10mi
Dew Point: 29°   Wind: 5mph
Humidity: 36%   Direction: NA
Pressure: 30.24"   Gusts: NA
Location:  34.11°N, 85.34°W
Report Text: KRMG 230053Z AUTO VRB04KT 10SM OVC034 13/M02 A3024 RMK AO2 SLP238 T01331017
Loading
Personal Weather Stations






























Interactive Weather Map New forecast layout! Learn more

10-Day Weather Forecast

Advertisements
Track Severe Weather on mobile